sensor_id;sensor_type;location;lat;lon;timestamp;temperature;humidity
19206;DHT22;59358;52.134;5.596;2023-11-19T00:00:28;13.90;99.90
19206;DHT22;59358;52.134;5.596;2023-11-19T00:02:55;13.90;99.90
19206;DHT22;59358;52.134;5.596;2023-11-19T00:05:22;13.90;99.90
19206;DHT22;59358;52.134;5.596;2023-11-19T00:07:49;13.90;99.90
19206;DHT22;59358;52.134;5.596;2023-11-19T00:10:16;13.80;99.90
19206;DHT22;59358;52.134;5.596;2023-11-19T00:12:46;13.90;99.90
19206;DHT22;59358;52.134;5.596;2023-11-19T00:15:15;13.90;99.90
19206;DHT22;59358;52.134;5.596;2023-11-19T00:17:45;13.80;99.90
19206;DHT22;59358;52.134;5.596;2023-11-19T00:20:13;13.80;99.90
19206;DHT22;59358;52.134;5.596;2023-11-19T00:22:40;13.80;99.90
19206;DHT22;59358;52.134;5.596;2023-11-19T00:25:08;13.80;99.90
19206;DHT22;59358;52.134;5.596;2023-11-19T00:27:35;13.80;99.90
19206;DHT22;59358;52.134;5.596;2023-11-19T00:30:03;13.80;99.90
19206;DHT22;59358;52.134;5.596;2023-11-19T00:32:32;13.80;99.90
19206;DHT22;59358;52.134;5.596;2023-11-19T00:34:59;13.80;99.90
19206;DHT22;59358;52.134;5.596;2023-11-19T00:37:26;13.80;99.90
19206;DHT22;59358;52.134;5.596;2023-11-19T00:39:53;13.80;99.90
19206;DHT22;59358;52.134;5.596;2023-11-19T00:42:21;13.80;99.90
19206;DHT22;59358;52.134;5.596;2023-11-19T00:44:48;13.70;99.90
19206;DHT22;59358;52.134;5.596;2023-11-19T00:47:15;13.70;99.90
19206;DHT22;59358;52.134;5.596;2023-11-19T00:49:43;13.70;99.90
19206;DHT22;59358;52.134;5.596;2023-11-19T00:52:10;13.70;99.90
19206;DHT22;59358;52.134;5.596;2023-11-19T00:54:37;13.80;99.90
19206;DHT22;59358;52.134;5.596;2023-11-19T00:57:04;13.80;99.90
19206;DHT22;59358;52.134;5.596;2023-11-19T00:59:31;13.80;99.90
19206;DHT22;59358;52.134;5.596;2023-11-19T01:01:59;13.70;99.90
19206;DHT22;59358;52.134;5.596;2023-11-19T01:04:28;13.70;99.90
19206;DHT22;59358;52.134;5.596;2023-11-19T01:06:56;13.70;99.90
19206;DHT22;59358;52.134;5.596;2023-11-19T01:09:23;13.70;99.90
19206;DHT22;59358;52.134;5.596;2023-11-19T01:11:50;13.80;99.90
19206;DHT22;59358;52.134;5.596;2023-11-19T01:14:16;13.70;99.90
19206;DHT22;59358;52.134;5.596;2023-11-19T01:16:44;13.70;99.90
19206;DHT22;59358;52.134;5.596;2023-11-19T01:19:10;13.70;99.90
19206;DHT22;59358;52.134;5.596;2023-11-19T01:21:37;13.70;99.90
19206;DHT22;59358;52.134;5.596;2023-11-19T01:24:06;13.70;99.90
19206;DHT22;59358;52.134;5.596;2023-11-19T01:26:35;13.80;99.90
19206;DHT22;59358;52.134;5.596;2023-11-19T01:29:01;13.80;99.90
19206;DHT22;59358;52.134;5.596;2023-11-19T01:31:29;13.70;99.90
19206;DHT22;59358;52.134;5.596;2023-11-19T01:33:56;13.80;99.90
19206;DHT22;59358;52.134;5.596;2023-11-19T01:36:22;13.80;99.90
19206;DHT22;59358;52.134;5.596;2023-11-19T01:38:49;13.70;99.90
19206;DHT22;59358;52.134;5.596;2023-11-19T01:41:18;13.80;99.90
19206;DHT22;59358;52.134;5.596;2023-11-19T01:43:44;13.80;99.90
19206;DHT22;59358;52.134;5.596;2023-11-19T01:46:13;13.70;99.90
19206;DHT22;59358;52.134;5.596;2023-11-19T01:48:42;13.80;99.90
19206;DHT22;59358;52.134;5.596;2023-11-19T01:51:11;13.80;99.90
19206;DHT22;59358;52.134;5.596;2023-11-19T01:53:39;13.80;99.90
19206;DHT22;59358;52.134;5.596;2023-11-19T01:56:08;13.80;99.90
19206;DHT22;59358;52.134;5.596;2023-11-19T01:58:37;13.70;99.90
19206;DHT22;59358;52.134;5.596;2023-11-19T02:01:05;13.80;99.90
19206;DHT22;59358;52.134;5.596;2023-11-19T02:03:33;13.80;99.90
19206;DHT22;59358;52.134;5.596;2023-11-19T02:05:59;13.70;99.90
19206;DHT22;59358;52.134;5.596;2023-11-19T02:08:27;13.70;99.90
19206;DHT22;59358;52.134;5.596;2023-11-19T02:10:53;13.70;99.90
19206;DHT22;59358;52.134;5.596;2023-11-19T02:13:22;13.70;99.90
19206;DHT22;59358;52.134;5.596;2023-11-19T02:15:50;13.70;99.90
19206;DHT22;59358;52.134;5.596;2023-11-19T02:18:18;13.70;99.90
19206;DHT22;59358;52.134;5.596;2023-11-19T02:20:45;13.60;99.90
19206;DHT22;59358;52.134;5.596;2023-11-19T02:23:13;13.50;99.90
19206;DHT22;59358;52.134;5.596;2023-11-19T02:25:40;13.50;99.90
19206;DHT22;59358;52.134;5.596;2023-11-19T02:28:09;13.40;99.90
19206;DHT22;59358;52.134;5.596;2023-11-19T02:30:37;13.40;99.90
19206;DHT22;59358;52.134;5.596;2023-11-19T02:33:04;13.40;99.90
19206;DHT22;59358;52.134;5.596;2023-11-19T02:35:32;13.30;99.90
19206;DHT22;59358;52.134;5.596;2023-11-19T02:37:59;13.30;99.90
19206;DHT22;59358;52.134;5.596;2023-11-19T02:40:29;13.40;99.90
19206;DHT22;59358;52.134;5.596;2023-11-19T02:42:56;13.40;99.90
19206;DHT22;59358;52.134;5.596;2023-11-19T02:45:25;13.40;99.90
19206;DHT22;59358;52.134;5.596;2023-11-19T02:47:52;13.40;99.90
19206;DHT22;59358;52.134;5.596;2023-11-19T02:50:21;13.30;99.90
19206;DHT22;59358;52.134;5.596;2023-11-19T02:52:52;13.30;99.90
19206;DHT22;59358;52.134;5.596;2023-11-19T02:55:19;13.20;99.90
19206;DHT22;59358;52.134;5.596;2023-11-19T02:57:46;13.10;99.90
19206;DHT22;59358;52.134;5.596;2023-11-19T03:00:16;13.10;99.90
19206;DHT22;59358;52.134;5.596;2023-11-19T03:02:45;13.10;99.90
19206;DHT22;59358;52.134;5.596;2023-11-19T03:05:13;13.10;99.90
19206;DHT22;59358;52.134;5.596;2023-11-19T03:07:42;13.10;99.90
19206;DHT22;59358;52.134;5.596;2023-11-19T03:10:10;13.00;99.90
19206;DHT22;59358;52.134;5.596;2023-11-19T03:12:39;13.00;99.90
19206;DHT22;59358;52.134;5.596;2023-11-19T03:15:07;13.00;99.90
19206;DHT22;59358;52.134;5.596;2023-11-19T03:17:35;12.90;99.90
19206;DHT22;59358;52.134;5.596;2023-11-19T03:20:05;12.80;99.90
19206;DHT22;59358;52.134;5.596;2023-11-19T03:22:35;12.80;99.90
19206;DHT22;59358;52.134;5.596;2023-11-19T03:25:03;12.80;99.90
19206;DHT22;59358;52.134;5.596;2023-11-19T03:27:34;12.70;99.90
19206;DHT22;59358;52.134;5.596;2023-11-19T03:30:02;12.70;99.90
19206;DHT22;59358;52.134;5.596;2023-11-19T03:32:30;12.60;99.90
19206;DHT22;59358;52.134;5.596;2023-11-19T03:34:57;12.60;99.90
19206;DHT22;59358;52.134;5.596;2023-11-19T03:37:26;12.50;99.90
19206;DHT22;59358;52.134;5.596;2023-11-19T03:39:53;12.40;99.90
19206;DHT22;59358;52.134;5.596;2023-11-19T03:42:20;12.40;99.90
19206;DHT22;59358;52.134;5.596;2023-11-19T03:44:47;12.30;99.90
19206;DHT22;59358;52.134;5.596;2023-11-19T03:47:14;12.20;99.90
19206;DHT22;59358;52.134;5.596;2023-11-19T03:49:41;12.20;99.90
19206;DHT22;59358;52.134;5.596;2023-11-19T03:52:09;12.20;99.90
19206;DHT22;59358;52.134;5.596;2023-11-19T03:54:37;12.10;99.90
19206;DHT22;59358;52.134;5.596;2023-11-19T03:57:04;12.10;99.90
19206;DHT22;59358;52.134;5.596;2023-11-19T03:59:31;12.00;99.90
19206;DHT22;59358;52.134;5.596;2023-11-19T04:01:58;12.00;99.90
19206;DHT22;59358;52.134;5.596;2023-11-19T04:04:28;12.00;99.90
19206;DHT22;59358;52.134;5.596;2023-11-19T04:06:55;12.00;99.90
19206;DHT22;59358;52.134;5.596;2023-11-19T04:09:23;11.90;99.90
19206;DHT22;59358;52.134;5.596;2023-11-19T04:11:51;12.00;99.90
19206;DHT22;59358;52.134;5.596;2023-11-19T04:14:18;11.90;99.90
19206;DHT22;59358;52.134;5.596;2023-11-19T04:16:45;11.90;99.90
19206;DHT22;59358;52.134;5.596;2023-11-19T04:19:12;11.90;99.90
19206;DHT22;59358;52.134;5.596;2023-11-19T04:21:40;12.00;99.90
19206;DHT22;59358;52.134;5.596;2023-11-19T04:24:08;12.00;99.90
19206;DHT22;59358;52.134;5.596;2023-11-19T04:26:40;12.00;99.90
19206;DHT22;59358;52.134;5.596;2023-11-19T04:29:09;12.00;99.90
19206;DHT22;59358;52.134;5.596;2023-11-19T04:31:37;12.00;99.90
19206;DHT22;59358;52.134;5.596;2023-11-19T04:34:04;12.10;99.90
19206;DHT22;59358;52.134;5.596;2023-11-19T04:36:31;12.10;99.90
19206;DHT22;59358;52.134;5.596;2023-11-19T04:38:59;12.10;99.90
19206;DHT22;59358;52.134;5.596;2023-11-19T04:41:26;12.00;99.90
19206;DHT22;59358;52.134;5.596;2023-11-19T04:43:54;12.00;99.90
19206;DHT22;59358;52.134;5.596;2023-11-19T04:46:22;11.90;99.90
19206;DHT22;59358;52.134;5.596;2023-11-19T04:48:49;11.90;99.90
19206;DHT22;59358;52.134;5.596;2023-11-19T04:51:17;11.80;99.90
19206;DHT22;59358;52.134;5.596;2023-11-19T04:53:43;11.80;99.90
19206;DHT22;59358;52.134;5.596;2023-11-19T04:56:11;11.80;99.90
19206;DHT22;59358;52.134;5.596;2023-11-19T04:58:38;11.70;99.90
19206;DHT22;59358;52.134;5.596;2023-11-19T05:01:05;11.70;99.90
19206;DHT22;59358;52.134;5.596;2023-11-19T05:03:33;11.70;99.90
19206;DHT22;59358;52.134;5.596;2023-11-19T05:06:01;11.70;99.90
19206;DHT22;59358;52.134;5.596;2023-11-19T05:08:28;11.80;99.90
19206;DHT22;59358;52.134;5.596;2023-11-19T05:10:55;11.80;99.90
19206;DHT22;59358;52.134;5.596;2023-11-19T05:13:23;11.70;99.90
19206;DHT22;59358;52.134;5.596;2023-11-19T05:15:49;11.60;99.90
19206;DHT22;59358;52.134;5.596;2023-11-19T05:18:16;11.60;99.90
19206;DHT22;59358;52.134;5.596;2023-11-19T05:20:45;11.50;99.90
19206;DHT22;59358;52.134;5.596;2023-11-19T05:23:12;11.60;99.90
19206;DHT22;59358;52.134;5.596;2023-11-19T05:25:39;11.60;99.90
19206;DHT22;59358;52.134;5.596;2023-11-19T05:28:05;11.60;99.90
19206;DHT22;59358;52.134;5.596;2023-11-19T05:30:32;11.70;99.90
19206;DHT22;59358;52.134;5.596;2023-11-19T05:32:59;11.60;99.90
19206;DHT22;59358;52.134;5.596;2023-11-19T05:35:26;11.60;99.90
19206;DHT22;59358;52.134;5.596;2023-11-19T05:37:54;11.60;99.90
19206;DHT22;59358;52.134;5.596;2023-11-19T05:40:21;11.60;99.90
19206;DHT22;59358;52.134;5.596;2023-11-19T05:42:48;11.50;99.90
19206;DHT22;59358;52.134;5.596;2023-11-19T05:45:15;11.50;99.90
19206;DHT22;59358;52.134;5.596;2023-11-19T05:47:42;11.50;99.90
19206;DHT22;59358;52.134;5.596;2023-11-19T05:50:09;11.50;99.90
19206;DHT22;59358;52.134;5.596;2023-11-19T05:52:37;11.50;99.90
19206;DHT22;59358;52.134;5.596;2023-11-19T05:55:05;11.40;99.90
19206;DHT22;59358;52.134;5.596;2023-11-19T05:57:35;11.40;99.90
19206;DHT22;59358;52.134;5.596;2023-11-19T06:00:02;11.40;99.90
19206;DHT22;59358;52.134;5.596;2023-11-19T06:02:32;11.30;99.90
19206;DHT22;59358;52.134;5.596;2023-11-19T06:04:59;11.40;99.90
19206;DHT22;59358;52.134;5.596;2023-11-19T06:07:26;11.30;99.90
19206;DHT22;59358;52.134;5.596;2023-11-19T06:09:53;11.40;99.90
19206;DHT22;59358;52.134;5.596;2023-11-19T06:12:21;11.40;99.90
19206;DHT22;59358;52.134;5.596;2023-11-19T06:14:48;11.40;99.90
19206;DHT22;59358;52.134;5.596;2023-11-19T06:17:15;11.50;99.90
19206;DHT22;59358;52.134;5.596;2023-11-19T06:19:42;11.50;99.90
19206;DHT22;59358;52.134;5.596;2023-11-19T06:22:09;11.40;99.90
19206;DHT22;59358;52.134;5.596;2023-11-19T06:24:35;11.40;99.90
19206;DHT22;59358;52.134;5.596;2023-11-19T06:27:03;11.30;99.90
19206;DHT22;59358;52.134;5.596;2023-11-19T06:29:31;11.40;99.90
19206;DHT22;59358;52.134;5.596;2023-11-19T06:31:58;11.30;99.90
19206;DHT22;59358;52.134;5.596;2023-11-19T06:34:25;11.30;99.90
19206;DHT22;59358;52.134;5.596;2023-11-19T06:36:52;11.40;99.90
19206;DHT22;59358;52.134;5.596;2023-11-19T06:39:19;11.30;99.90
19206;DHT22;59358;52.134;5.596;2023-11-19T06:41:46;11.30;99.90
19206;DHT22;59358;52.134;5.596;2023-11-19T06:44:13;11.30;99.90
19206;DHT22;59358;52.134;5.596;2023-11-19T06:46:41;11.20;99.90
19206;DHT22;59358;52.134;5.596;2023-11-19T06:49:08;11.20;99.90
19206;DHT22;59358;52.134;5.596;2023-11-19T06:51:35;11.20;99.90
19206;DHT22;59358;52.134;5.596;2023-11-19T06:54:01;11.10;99.90
19206;DHT22;59358;52.134;5.596;2023-11-19T06:56:28;11.20;99.90
19206;DHT22;59358;52.134;5.596;2023-11-19T06:58:55;11.20;99.90
19206;DHT22;59358;52.134;5.596;2023-11-19T07:01:22;11.10;99.90
19206;DHT22;59358;52.134;5.596;2023-11-19T07:03:50;11.20;99.90
19206;DHT22;59358;52.134;5.596;2023-11-19T07:06:16;11.20;99.90
19206;DHT22;59358;52.134;5.596;2023-11-19T07:08:44;11.20;99.90
19206;DHT22;59358;52.134;5.596;2023-11-19T07:11:11;11.30;99.90
19206;DHT22;59358;52.134;5.596;2023-11-19T07:13:40;11.30;99.90
19206;DHT22;59358;52.134;5.596;2023-11-19T07:16:07;11.30;99.90
19206;DHT22;59358;52.134;5.596;2023-11-19T07:18:36;11.30;99.90
19206;DHT22;59358;52.134;5.596;2023-11-19T07:21:06;11.40;99.90
19206;DHT22;59358;52.134;5.596;2023-11-19T07:23:35;11.40;99.90
19206;DHT22;59358;52.134;5.596;2023-11-19T07:26:05;11.40;99.90
19206;DHT22;59358;52.134;5.596;2023-11-19T07:28:33;11.40;99.90
19206;DHT22;59358;52.134;5.596;2023-11-19T07:31:00;11.50;99.90
19206;DHT22;59358;52.134;5.596;2023-11-19T07:33:27;11.50;99.90
19206;DHT22;59358;52.134;5.596;2023-11-19T07:35:55;11.50;99.90
19206;DHT22;59358;52.134;5.596;2023-11-19T07:38:23;11.50;99.90
19206;DHT22;59358;52.134;5.596;2023-11-19T07:40:50;11.50;99.90
19206;DHT22;59358;52.134;5.596;2023-11-19T07:43:16;11.60;99.90
19206;DHT22;59358;52.134;5.596;2023-11-19T07:45:43;11.60;99.90
19206;DHT22;59358;52.134;5.596;2023-11-19T07:48:11;11.60;99.90
19206;DHT22;59358;52.134;5.596;2023-11-19T07:50:39;11.50;99.90
19206;DHT22;59358;52.134;5.596;2023-11-19T07:53:06;11.50;99.90
19206;DHT22;59358;52.134;5.596;2023-11-19T07:55:35;11.50;99.90
19206;DHT22;59358;52.134;5.596;2023-11-19T07:58:02;11.50;99.90
19206;DHT22;59358;52.134;5.596;2023-11-19T08:00:29;11.50;99.90
19206;DHT22;59358;52.134;5.596;2023-11-19T08:02:56;11.50;99.90
19206;DHT22;59358;52.134;5.596;2023-11-19T08:05:22;11.50;99.90
19206;DHT22;59358;52.134;5.596;2023-11-19T08:07:50;11.60;99.90
19206;DHT22;59358;52.134;5.596;2023-11-19T08:10:17;11.60;99.90
19206;DHT22;59358;52.134;5.596;2023-11-19T08:12:45;11.60;99.90
19206;DHT22;59358;52.134;5.596;2023-11-19T08:15:12;11.60;99.90
19206;DHT22;59358;52.134;5.596;2023-11-19T08:17:39;11.60;99.90
19206;DHT22;59358;52.134;5.596;2023-11-19T08:20:07;11.60;99.90
19206;DHT22;59358;52.134;5.596;2023-11-19T08:22:35;11.70;99.90
19206;DHT22;59358;52.134;5.596;2023-11-19T08:25:03;11.70;99.90
19206;DHT22;59358;52.134;5.596;2023-11-19T08:27:30;11.80;99.90
19206;DHT22;59358;52.134;5.596;2023-11-19T08:29:58;11.80;99.90
19206;DHT22;59358;52.134;5.596;2023-11-19T08:32:25;11.80;99.90
19206;DHT22;59358;52.134;5.596;2023-11-19T08:34:52;11.90;99.90
19206;DHT22;59358;52.134;5.596;2023-11-19T08:37:19;11.90;99.90
19206;DHT22;59358;52.134;5.596;2023-11-19T08:39:47;11.80;99.90
19206;DHT22;59358;52.134;5.596;2023-11-19T08:42:14;11.80;99.90
19206;DHT22;59358;52.134;5.596;2023-11-19T08:44:41;11.80;99.90
19206;DHT22;59358;52.134;5.596;2023-11-19T08:47:11;12.00;99.90
19206;DHT22;59358;52.134;5.596;2023-11-19T08:49:38;11.90;99.90
19206;DHT22;59358;52.134;5.596;2023-11-19T08:52:08;11.90;99.90
19206;DHT22;59358;52.134;5.596;2023-11-19T08:54:36;11.90;99.90
19206;DHT22;59358;52.134;5.596;2023-11-19T08:57:03;12.00;99.90
19206;DHT22;59358;52.134;5.596;2023-11-19T08:59:30;12.10;99.90
19206;DHT22;59358;52.134;5.596;2023-11-19T09:01:56;12.10;99.90
19206;DHT22;59358;52.134;5.596;2023-11-19T09:04:25;12.20;99.90
19206;DHT22;59358;52.134;5.596;2023-11-19T09:06:51;12.20;99.90
19206;DHT22;59358;52.134;5.596;2023-11-19T09:09:18;12.20;99.90
19206;DHT22;59358;52.134;5.596;2023-11-19T09:11:45;12.30;99.90
19206;DHT22;59358;52.134;5.596;2023-11-19T09:14:12;12.40;99.90
19206;DHT22;59358;52.134;5.596;2023-11-19T09:16:38;12.40;99.90
19206;DHT22;59358;52.134;5.596;2023-11-19T09:19:05;12.40;99.90
19206;DHT22;59358;52.134;5.596;2023-11-19T09:21:33;12.40;99.90
19206;DHT22;59358;52.134;5.596;2023-11-19T09:24:03;12.50;99.90
19206;DHT22;59358;52.134;5.596;2023-11-19T09:26:30;12.50;99.90
19206;DHT22;59358;52.134;5.596;2023-11-19T09:28:57;12.50;99.90
19206;DHT22;59358;52.134;5.596;2023-11-19T09:31:24;12.60;99.90
19206;DHT22;59358;52.134;5.596;2023-11-19T09:33:50;12.60;99.90
19206;DHT22;59358;52.134;5.596;2023-11-19T09:36:17;12.60;99.90
19206;DHT22;59358;52.134;5.596;2023-11-19T09:38:46;12.60;99.90
19206;DHT22;59358;52.134;5.596;2023-11-19T09:41:12;12.60;99.90
19206;DHT22;59358;52.134;5.596;2023-11-19T09:43:40;12.60;99.90
19206;DHT22;59358;52.134;5.596;2023-11-19T09:46:08;12.60;99.90
19206;DHT22;59358;52.134;5.596;2023-11-19T09:48:37;12.70;99.90
19206;DHT22;59358;52.134;5.596;2023-11-19T09:51:06;12.70;99.90
19206;DHT22;59358;52.134;5.596;2023-11-19T09:53:37;12.70;99.90
19206;DHT22;59358;52.134;5.596;2023-11-19T09:56:06;12.70;99.90
19206;DHT22;59358;52.134;5.596;2023-11-19T09:58:34;12.70;99.90
19206;DHT22;59358;52.134;5.596;2023-11-19T10:01:01;12.90;99.90
19206;DHT22;59358;52.134;5.596;2023-11-19T10:03:34;12.90;99.90
19206;DHT22;59358;52.134;5.596;2023-11-19T10:06:03;12.90;99.90
19206;DHT22;59358;52.134;5.596;2023-11-19T10:08:32;12.90;99.90
19206;DHT22;59358;52.134;5.596;2023-11-19T10:10:59;13.00;99.90
19206;DHT22;59358;52.134;5.596;2023-11-19T10:13:28;13.00;99.90
19206;DHT22;59358;52.134;5.596;2023-11-19T10:15:56;13.00;99.90
19206;DHT22;59358;52.134;5.596;2023-11-19T10:18:24;13.10;99.90
19206;DHT22;59358;52.134;5.596;2023-11-19T10:20:51;13.10;99.90
19206;DHT22;59358;52.134;5.596;2023-11-19T10:23:18;13.00;99.90
19206;DHT22;59358;52.134;5.596;2023-11-19T10:25:46;13.10;99.90
19206;DHT22;59358;52.134;5.596;2023-11-19T10:28:15;13.10;99.90
19206;DHT22;59358;52.134;5.596;2023-11-19T10:30:44;13.20;99.90
19206;DHT22;59358;52.134;5.596;2023-11-19T10:33:11;13.30;99.90
19206;DHT22;59358;52.134;5.596;2023-11-19T10:35:51;13.40;99.90
19206;DHT22;59358;52.134;5.596;2023-11-19T10:38:19;13.40;99.90
19206;DHT22;59358;52.134;5.596;2023-11-19T10:40:46;13.40;99.90
19206;DHT22;59358;52.134;5.596;2023-11-19T10:43:13;13.50;99.90
19206;DHT22;59358;52.134;5.596;2023-11-19T10:45:49;13.60;99.90
19206;DHT22;59358;52.134;5.596;2023-11-19T10:48:30;13.60;99.90
19206;DHT22;59358;52.134;5.596;2023-11-19T10:50:57;13.70;99.90
19206;DHT22;59358;52.134;5.596;2023-11-19T10:53:24;13.70;99.90
19206;DHT22;59358;52.134;5.596;2023-11-19T10:55:52;13.70;99.90
19206;DHT22;59358;52.134;5.596;2023-11-19T10:58:20;13.60;99.90
19206;DHT22;59358;52.134;5.596;2023-11-19T11:00:52;13.80;99.90
19206;DHT22;59358;52.134;5.596;2023-11-19T11:03:21;13.90;99.90
19206;DHT22;59358;52.134;5.596;2023-11-19T11:05:50;13.90;99.90
19206;DHT22;59358;52.134;5.596;2023-11-19T11:08:17;14.00;99.90
19206;DHT22;59358;52.134;5.596;2023-11-19T11:10:45;13.90;99.90
19206;DHT22;59358;52.134;5.596;2023-11-19T11:13:15;13.90;99.90
19206;DHT22;59358;52.134;5.596;2023-11-19T11:15:42;13.90;99.90
19206;DHT22;59358;52.134;5.596;2023-11-19T11:18:13;13.80;99.90
19206;DHT22;59358;52.134;5.596;2023-11-19T11:20:40;13.90;99.90
19206;DHT22;59358;52.134;5.596;2023-11-19T11:23:37;14.00;99.90
19206;DHT22;59358;52.134;5.596;2023-11-19T11:26:23;13.80;99.90
19206;DHT22;59358;52.134;5.596;2023-11-19T11:28:58;13.80;99.90
19206;DHT22;59358;52.134;5.596;2023-11-19T11:31:36;13.80;99.90
19206;DHT22;59358;52.134;5.596;2023-11-19T11:34:27;13.90;99.90
19206;DHT22;59358;52.134;5.596;2023-11-19T11:37:06;13.90;99.90
19206;DHT22;59358;52.134;5.596;2023-11-19T11:39:34;13.90;99.90
19206;DHT22;59358;52.134;5.596;2023-11-19T11:42:34;13.90;99.90
19206;DHT22;59358;52.134;5.596;2023-11-19T11:45:03;13.90;99.90
19206;DHT22;59358;52.134;5.596;2023-11-19T11:50:50;13.90;99.90
19206;DHT22;59358;52.134;5.596;2023-11-19T11:53:17;13.90;99.90
19206;DHT22;59358;52.134;5.596;2023-11-19T11:55:55;13.90;99.90
19206;DHT22;59358;52.134;5.596;2023-11-19T11:58:42;13.90;99.90
19206;DHT22;59358;52.134;5.596;2023-11-19T12:01:15;14.00;99.90
19206;DHT22;59358;52.134;5.596;2023-11-19T12:03:46;13.90;99.90
19206;DHT22;59358;52.134;5.596;2023-11-19T12:06:14;13.80;99.90
19206;DHT22;59358;52.134;5.596;2023-11-19T12:08:48;13.70;99.90
19206;DHT22;59358;52.134;5.596;2023-11-19T12:11:16;13.70;99.90
19206;DHT22;59358;52.134;5.596;2023-11-19T12:13:53;13.80;99.90
19206;DHT22;59358;52.134;5.596;2023-11-19T12:16:23;13.70;99.90
19206;DHT22;59358;52.134;5.596;2023-11-19T12:18:54;13.70;99.90
19206;DHT22;59358;52.134;5.596;2023-11-19T12:21:29;13.80;99.90
19206;DHT22;59358;52.134;5.596;2023-11-19T12:23:58;13.90;99.90
19206;DHT22;59358;52.134;5.596;2023-11-19T12:26:37;13.90;99.90
19206;DHT22;59358;52.134;5.596;2023-11-19T12:29:05;13.80;99.90
19206;DHT22;59358;52.134;5.596;2023-11-19T12:31:33;14.10;99.90
19206;DHT22;59358;52.134;5.596;2023-11-19T12:34:08;14.20;99.90
19206;DHT22;59358;52.134;5.596;2023-11-19T12:36:40;14.00;99.90
19206;DHT22;59358;52.134;5.596;2023-11-19T12:39:07;14.00;99.90
19206;DHT22;59358;52.134;5.596;2023-11-19T12:41:51;14.00;99.90
19206;DHT22;59358;52.134;5.596;2023-11-19T12:44:18;13.90;99.90
19206;DHT22;59358;52.134;5.596;2023-11-19T12:46:45;13.90;99.90
19206;DHT22;59358;52.134;5.596;2023-11-19T12:49:12;13.70;99.90
19206;DHT22;59358;52.134;5.596;2023-11-19T12:51:40;13.70;99.90
19206;DHT22;59358;52.134;5.596;2023-11-19T12:54:07;13.60;99.90
19206;DHT22;59358;52.134;5.596;2023-11-19T12:56:34;13.60;99.90
19206;DHT22;59358;52.134;5.596;2023-11-19T12:59:10;13.70;99.90
19206;DHT22;59358;52.134;5.596;2023-11-19T13:01:38;13.70;99.90
19206;DHT22;59358;52.134;5.596;2023-11-19T13:04:21;13.70;99.90
19206;DHT22;59358;52.134;5.596;2023-11-19T13:06:51;13.70;99.90
19206;DHT22;59358;52.134;5.596;2023-11-19T13:09:22;13.70;99.90
19206;DHT22;59358;52.134;5.596;2023-11-19T13:11:50;13.70;99.90
19206;DHT22;59358;52.134;5.596;2023-11-19T13:14:17;13.80;99.90
19206;DHT22;59358;52.134;5.596;2023-11-19T13:16:44;13.70;99.90
19206;DHT22;59358;52.134;5.596;2023-11-19T13:19:12;13.70;99.90
19206;DHT22;59358;52.134;5.596;2023-11-19T13:21:39;13.60;99.90
19206;DHT22;59358;52.134;5.596;2023-11-19T13:24:07;13.60;99.90
19206;DHT22;59358;52.134;5.596;2023-11-19T13:26:34;13.50;99.90
19206;DHT22;59358;52.134;5.596;2023-11-19T13:29:04;13.40;99.90
19206;DHT22;59358;52.134;5.596;2023-11-19T13:31:30;13.40;99.90
19206;DHT22;59358;52.134;5.596;2023-11-19T13:33:57;13.40;99.90
19206;DHT22;59358;52.134;5.596;2023-11-19T13:36:24;13.20;99.90
19206;DHT22;59358;52.134;5.596;2023-11-19T13:38:51;13.00;99.90
19206;DHT22;59358;52.134;5.596;2023-11-19T13:41:25;13.00;99.90
19206;DHT22;59358;52.134;5.596;2023-11-19T13:43:52;13.00;99.90
19206;DHT22;59358;52.134;5.596;2023-11-19T13:46:19;13.00;99.90
19206;DHT22;59358;52.134;5.596;2023-11-19T13:48:46;13.00;99.90
19206;DHT22;59358;52.134;5.596;2023-11-19T13:51:15;12.90;99.90
19206;DHT22;59358;52.134;5.596;2023-11-19T13:53:41;12.90;99.90
19206;DHT22;59358;52.134;5.596;2023-11-19T13:56:09;13.00;99.90
19206;DHT22;59358;52.134;5.596;2023-11-19T13:58:37;13.00;99.90
19206;DHT22;59358;52.134;5.596;2023-11-19T14:01:06;13.00;99.90
19206;DHT22;59358;52.134;5.596;2023-11-19T14:03:33;13.00;99.90
19206;DHT22;59358;52.134;5.596;2023-11-19T14:06:00;12.90;99.90
19206;DHT22;59358;52.134;5.596;2023-11-19T14:08:27;12.80;99.90
19206;DHT22;59358;52.134;5.596;2023-11-19T14:10:54;12.80;99.90
19206;DHT22;59358;52.134;5.596;2023-11-19T14:13:22;12.90;99.90
19206;DHT22;59358;52.134;5.596;2023-11-19T14:15:50;12.90;99.90
19206;DHT22;59358;52.134;5.596;2023-11-19T14:18:20;12.90;99.90
19206;DHT22;59358;52.134;5.596;2023-11-19T14:20:47;12.90;99.90
19206;DHT22;59358;52.134;5.596;2023-11-19T14:23:13;12.90;99.90
19206;DHT22;59358;52.134;5.596;2023-11-19T14:25:40;12.80;99.90
19206;DHT22;59358;52.134;5.596;2023-11-19T14:28:07;12.90;99.90
19206;DHT22;59358;52.134;5.596;2023-11-19T14:30:34;12.80;99.90
19206;DHT22;59358;52.134;5.596;2023-11-19T14:33:02;12.70;99.90
19206;DHT22;59358;52.134;5.596;2023-11-19T14:35:30;12.70;99.90
19206;DHT22;59358;52.134;5.596;2023-11-19T14:37:58;12.60;99.90
19206;DHT22;59358;52.134;5.596;2023-11-19T14:40:25;12.60;99.90
19206;DHT22;59358;52.134;5.596;2023-11-19T14:42:51;12.60;99.90
19206;DHT22;59358;52.134;5.596;2023-11-19T14:45:18;12.50;99.90
19206;DHT22;59358;52.134;5.596;2023-11-19T14:47:45;12.50;99.90
19206;DHT22;59358;52.134;5.596;2023-11-19T14:50:13;12.50;99.90
19206;DHT22;59358;52.134;5.596;2023-11-19T14:52:40;12.50;99.90
19206;DHT22;59358;52.134;5.596;2023-11-19T14:55:08;12.60;99.90
19206;DHT22;59358;52.134;5.596;2023-11-19T14:57:35;12.60;99.90
19206;DHT22;59358;52.134;5.596;2023-11-19T15:00:06;12.70;99.90
19206;DHT22;59358;52.134;5.596;2023-11-19T15:02:39;12.70;99.90
19206;DHT22;59358;52.134;5.596;2023-11-19T15:05:06;12.70;99.90
19206;DHT22;59358;52.134;5.596;2023-11-19T15:07:36;12.70;99.90
19206;DHT22;59358;52.134;5.596;2023-11-19T15:10:04;12.70;99.90
19206;DHT22;59358;52.134;5.596;2023-11-19T15:12:34;12.60;99.90
19206;DHT22;59358;52.134;5.596;2023-11-19T15:15:06;12.60;99.90
19206;DHT22;59358;52.134;5.596;2023-11-19T15:17:35;12.60;99.90
19206;DHT22;59358;52.134;5.596;2023-11-19T15:20:03;12.60;99.90
19206;DHT22;59358;52.134;5.596;2023-11-19T15:22:30;12.60;99.90
19206;DHT22;59358;52.134;5.596;2023-11-19T15:24:59;12.60;99.90
19206;DHT22;59358;52.134;5.596;2023-11-19T15:27:26;12.60;99.90
19206;DHT22;59358;52.134;5.596;2023-11-19T15:29:53;12.60;99.90
19206;DHT22;59358;52.134;5.596;2023-11-19T15:32:20;12.60;99.90
19206;DHT22;59358;52.134;5.596;2023-11-19T15:34:47;12.60;99.90
19206;DHT22;59358;52.134;5.596;2023-11-19T15:37:15;12.60;99.90
19206;DHT22;59358;52.134;5.596;2023-11-19T15:39:41;12.60;99.90